createdAt,value
2019-05-11T00:02:29.779Z,9.07
2019-05-11T00:05:01.085Z,9.06
2019-05-11T00:07:32.467Z,9.06
2019-05-11T00:10:03.921Z,9.04
2019-05-11T00:12:35.246Z,9.05
2019-05-11T00:15:06.991Z,9.05
2019-05-11T00:17:38.303Z,9.04
2019-05-11T00:20:09.999Z,9.05
2019-05-11T00:22:41.352Z,9.05
2019-05-11T00:25:12.865Z,9.07
2019-05-11T00:27:44.171Z,9.09
2019-05-11T00:30:15.913Z,9.10
2019-05-11T00:32:47.257Z,9.14
2019-05-11T00:35:18.535Z,9.15
2019-05-11T00:37:49.835Z,9.16
2019-05-11T00:40:21.149Z,9.17
2019-05-11T00:42:52.485Z,9.20
2019-05-11T00:45:23.731Z,9.20
2019-05-11T00:47:55.061Z,9.20
2019-05-11T00:50:38.543Z,9.20
2019-05-11T00:52:59.359Z,9.20
2019-05-11T00:55:30.651Z,9.18
2019-05-11T00:58:01.924Z,9.18
2019-05-11T01:00:33.225Z,9.20
2019-05-11T01:03:04.503Z,9.23
2019-05-11T01:05:35.797Z,9.24
2019-05-11T01:08:07.106Z,9.24
2019-05-11T01:10:42.698Z,9.26
2019-05-11T01:13:11.341Z,9.26
2019-05-11T01:15:42.625Z,9.26
2019-05-11T01:18:14.137Z,9.27
2019-05-11T01:20:45.697Z,9.28
2019-05-11T01:23:16.955Z,9.30
2019-05-11T01:25:48.238Z,9.32
2019-05-11T01:28:19.604Z,9.31
2019-05-11T01:30:50.919Z,9.28
2019-05-11T01:33:22.236Z,9.28
2019-05-11T01:35:53.557Z,9.30
2019-05-11T01:38:24.863Z,9.30
2019-05-11T01:40:58.897Z,9.33
2019-05-11T01:43:29.162Z,9.34
2019-05-11T01:46:00.437Z,9.38
2019-05-11T01:48:31.707Z,9.43
2019-05-11T01:51:03.003Z,9.39
2019-05-11T01:53:34.336Z,9.45
2019-05-11T01:56:05.672Z,9.47
2019-05-11T01:58:36.975Z,9.37
2019-05-11T02:01:08.662Z,9.29
2019-05-11T02:03:40.022Z,9.25
2019-05-11T02:06:11.276Z,9.20
2019-05-11T02:08:42.556Z,9.18
2019-05-11T02:11:16.194Z,9.18
2019-05-11T02:13:46.814Z,9.22
2019-05-11T02:16:18.101Z,9.27
2019-05-11T02:18:49.431Z,9.31
2019-05-11T02:21:20.755Z,9.30
2019-05-11T02:23:52.018Z,9.28
2019-05-11T02:26:23.310Z,9.32
2019-05-11T02:28:54.593Z,9.25
2019-05-11T02:31:25.905Z,9.16
2019-05-11T02:33:57.253Z,9.07
2019-05-11T02:36:28.517Z,9.01
2019-05-11T02:38:59.833Z,9.00
2019-05-11T02:41:36.323Z,9.01
2019-05-11T02:44:04.321Z,9.01
2019-05-11T02:46:36.054Z,9.04
2019-05-11T02:49:07.397Z,9.05
2019-05-11T02:51:40.391Z,9.06
2019-05-11T02:54:13.166Z,9.08
2019-05-11T02:56:44.481Z,9.09
2019-05-11T02:59:15.800Z,9.13
2019-05-11T03:01:47.088Z,9.13
2019-05-11T03:04:18.408Z,9.13
2019-05-11T03:06:49.668Z,9.13
2019-05-11T03:09:20.971Z,9.13
2019-05-11T03:11:55.378Z,9.15
2019-05-11T03:14:25.260Z,9.15
2019-05-11T03:17:12.386Z,9.15
2019-05-11T03:19:43.707Z,9.16
2019-05-11T03:22:15.222Z,9.18
2019-05-11T03:24:46.521Z,9.18
2019-05-11T03:27:17.751Z,9.20
2019-05-11T03:29:49.103Z,9.22
2019-05-11T03:32:20.368Z,9.21
2019-05-11T03:34:51.711Z,9.22
2019-05-11T03:37:22.991Z,9.25
2019-05-11T03:39:54.246Z,9.22
2019-05-11T03:42:25.508Z,9.23
2019-05-11T03:44:56.787Z,9.20
2019-05-11T03:47:28.113Z,9.22
2019-05-11T03:49:59.380Z,9.20
2019-05-11T03:52:30.707Z,9.26
2019-05-11T03:55:01.985Z,9.26
2019-05-11T03:57:33.277Z,9.35
2019-05-11T04:00:04.741Z,9.43
2019-05-11T04:02:36.016Z,9.32
2019-05-11T04:05:07.633Z,9.24
2019-05-11T04:07:38.907Z,9.27
2019-05-11T04:10:10.365Z,9.27
2019-05-11T04:12:41.616Z,9.22
2019-05-11T04:15:13.292Z,9.15
2019-05-11T04:17:44.565Z,9.13
2019-05-11T04:20:15.910Z,9.09
2019-05-11T04:22:47.190Z,9.15
2019-05-11T04:25:18.466Z,9.10
2019-05-11T04:27:49.763Z,9.06
2019-05-11T04:30:21.185Z,9.04
2019-05-11T04:32:52.462Z,9.04
2019-05-11T04:35:23.771Z,9.08
2019-05-11T04:37:55.080Z,9.23
2019-05-11T04:40:26.301Z,9.19
2019-05-11T04:42:57.611Z,9.15
2019-05-11T04:45:28.887Z,9.14
2019-05-11T04:48:00.204Z,9.13
2019-05-11T04:50:31.499Z,9.24
2019-05-11T04:53:02.782Z,9.21
2019-05-11T04:55:34.084Z,9.22
2019-05-11T04:58:05.367Z,9.24
2019-05-11T05:00:36.615Z,9.37
2019-05-11T05:03:07.935Z,9.45
2019-05-11T05:05:39.224Z,9.31
2019-05-11T05:08:10.525Z,9.37
2019-05-11T05:10:41.811Z,9.40
2019-05-11T05:13:13.101Z,9.34
2019-05-11T05:15:44.373Z,9.36
2019-05-11T05:18:15.636Z,9.36
2019-05-11T05:20:46.948Z,9.27
2019-05-11T05:23:18.257Z,9.27
2019-05-11T05:25:49.505Z,9.36
2019-05-11T05:28:20.815Z,9.33
2019-05-11T05:30:52.128Z,9.32
2019-05-11T05:33:23.412Z,9.28
2019-05-11T05:35:54.709Z,9.34
2019-05-11T05:38:26.021Z,9.36
2019-05-11T05:40:57.353Z,9.43
2019-05-11T05:43:28.778Z,9.56
2019-05-11T05:46:00.049Z,9.58
2019-05-11T05:48:31.387Z,9.61
2019-05-11T05:51:02.747Z,9.70
2019-05-11T05:53:34.027Z,9.72
2019-05-11T05:56:05.371Z,9.75
2019-05-11T05:58:36.793Z,9.78
2019-05-11T06:01:10.293Z,9.87
2019-05-11T06:03:41.076Z,9.93
2019-05-11T06:06:12.404Z,9.95
2019-05-11T06:08:43.747Z,10.01
2019-05-11T06:11:15.087Z,10.05
2019-05-11T06:13:46.467Z,9.99
2019-05-11T06:16:17.976Z,10.04
2019-05-11T06:18:49.462Z,10.12
2019-05-11T06:21:20.769Z,10.10
2019-05-11T06:23:52.074Z,10.09
2019-05-11T06:26:23.438Z,10.10
2019-05-11T06:28:54.714Z,10.15
2019-05-11T06:31:26.196Z,10.22
2019-05-11T06:33:57.535Z,10.31
2019-05-11T06:36:28.870Z,10.41
2019-05-11T06:39:00.162Z,10.47
2019-05-11T06:41:31.446Z,10.45
2019-05-11T06:44:02.739Z,10.45
2019-05-11T06:46:35.100Z,10.50
2019-05-11T06:49:06.601Z,10.38
2019-05-11T06:51:40.431Z,10.41
2019-05-11T06:54:10.911Z,10.55
2019-05-11T06:56:42.220Z,10.65
2019-05-11T06:59:13.524Z,10.77
2019-05-11T07:01:44.769Z,10.84
2019-05-11T07:04:16.104Z,10.88
2019-05-11T07:06:47.404Z,10.95
2019-05-11T07:09:18.720Z,11.07
2019-05-11T07:11:50.043Z,11.18
2019-05-11T07:14:21.631Z,11.26
2019-05-11T07:16:52.985Z,11.36
2019-05-11T07:19:24.344Z,11.40
2019-05-11T07:21:55.685Z,11.35
2019-05-11T07:24:26.986Z,11.34
2019-05-11T07:26:58.299Z,11.39
2019-05-11T07:29:29.628Z,11.36
2019-05-11T07:32:10.144Z,11.38
2019-05-11T07:34:33.933Z,11.35
2019-05-11T07:37:05.258Z,11.38
2019-05-11T07:39:38.299Z,11.35
2019-05-11T07:42:09.742Z,11.34
2019-05-11T07:44:41.881Z,11.31
2019-05-11T07:47:13.301Z,11.28
2019-05-11T07:49:44.729Z,11.30
2019-05-11T07:52:18.077Z,11.28
2019-05-11T07:54:52.850Z,11.26
2019-05-11T07:57:22.101Z,11.18
2019-05-11T07:59:53.364Z,11.24
2019-05-11T08:02:24.736Z,11.26
2019-05-11T08:04:58.517Z,11.24
2019-05-11T08:07:28.946Z,11.28
2019-05-11T08:10:00.239Z,11.30
2019-05-11T08:12:31.540Z,11.32
2019-05-11T08:15:09.084Z,11.29
2019-05-11T08:17:37.952Z,11.31
2019-05-11T08:20:09.183Z,11.29
2019-05-11T08:22:40.511Z,11.29
2019-05-11T08:25:11.826Z,11.28
2019-05-11T08:27:43.193Z,11.25
2019-05-11T08:30:15.202Z,11.28
2019-05-11T08:32:49.095Z,11.27
2019-05-11T08:35:19.459Z,11.33
2019-05-11T08:37:50.777Z,11.30
2019-05-11T08:40:22.405Z,11.30
2019-05-11T08:42:53.700Z,11.32
2019-05-11T08:45:25.046Z,11.40
2019-05-11T08:47:57.906Z,11.46
2019-05-11T08:50:29.462Z,11.54
2019-05-11T08:53:00.697Z,11.59
2019-05-11T08:55:32.030Z,11.65
2019-05-11T08:58:03.252Z,11.72
2019-05-11T09:00:34.584Z,11.80
2019-05-11T09:03:08.368Z,11.87
2019-05-11T09:05:38.974Z,11.92
2019-05-11T09:08:10.342Z,11.95
2019-05-11T09:10:41.658Z,12.02
2019-05-11T09:13:13.036Z,11.98
2019-05-11T09:15:44.375Z,12.00
2019-05-11T09:18:15.693Z,11.99
2019-05-11T09:20:48.701Z,11.92
2019-05-11T09:23:33.518Z,11.95
2019-05-11T09:25:53.019Z,12.01
2019-05-11T09:28:24.295Z,12.12
2019-05-11T09:30:57.800Z,12.22
2019-05-11T09:33:28.625Z,12.17
2019-05-11T09:35:59.936Z,12.19
2019-05-11T09:38:31.267Z,12.22
2019-05-11T09:41:02.527Z,12.24
2019-05-11T09:43:33.815Z,12.32
2019-05-11T09:46:05.091Z,12.34
2019-05-11T09:48:37.859Z,12.44
2019-05-11T09:51:09.323Z,12.53
2019-05-11T09:53:40.692Z,12.65
2019-05-11T09:56:12.048Z,12.73
2019-05-11T09:58:43.429Z,12.92
2019-05-11T10:01:14.770Z,13.03
2019-05-11T10:03:48.222Z,13.18
2019-05-11T10:06:19.304Z,13.23
2019-05-11T10:08:50.625Z,13.32
2019-05-11T10:11:21.947Z,13.41
2019-05-11T10:13:53.287Z,13.48
2019-05-11T10:16:24.642Z,13.54
2019-05-11T10:18:55.915Z,13.59
2019-05-11T10:21:27.935Z,13.69
2019-05-11T10:23:59.289Z,13.67
2019-05-11T10:26:30.598Z,13.79
2019-05-11T10:29:01.895Z,14.16
2019-05-11T10:31:34.671Z,14.71
2019-05-11T10:34:08.460Z,15.20
2019-05-11T10:36:38.993Z,15.70
2019-05-11T10:39:10.828Z,15.98
2019-05-11T10:41:42.110Z,16.01
2019-05-11T10:44:13.401Z,16.07
2019-05-11T10:46:44.716Z,16.15
2019-05-11T10:49:18.303Z,16.18
2019-05-11T10:51:49.051Z,16.14
2019-05-11T10:54:20.366Z,16.01
2019-05-11T10:56:51.737Z,15.89
2019-05-11T10:59:23.035Z,15.71
2019-05-11T11:01:54.350Z,15.56
2019-05-11T11:04:25.610Z,15.45
2019-05-11T11:06:59.061Z,15.25
2019-05-11T11:09:29.979Z,15.06
2019-05-11T11:12:01.312Z,14.90
2019-05-11T11:14:32.598Z,14.85
2019-05-11T11:17:03.901Z,14.78
2019-05-11T11:19:35.197Z,14.78
2019-05-11T11:22:32.396Z,14.81
2019-05-11T11:24:39.554Z,14.84
2019-05-11T11:27:10.985Z,14.92
2019-05-11T11:29:42.548Z,15.09
2019-05-11T11:32:13.827Z,15.21
2019-05-11T11:34:45.127Z,15.47
2019-05-11T11:37:17.573Z,15.66
2019-05-11T11:39:49.008Z,15.76
2019-05-11T11:42:20.275Z,15.70
2019-05-11T11:44:51.619Z,15.61
2019-05-11T11:47:22.917Z,15.81
2019-05-11T11:49:54.199Z,16.07
2019-05-11T11:52:27.626Z,15.99
2019-05-11T11:54:58.760Z,15.79
2019-05-11T11:57:30.092Z,15.47
2019-05-11T12:00:01.406Z,15.33
2019-05-11T12:02:32.654Z,15.25
2019-05-11T12:05:03.992Z,15.16
2019-05-11T12:07:35.312Z,15.14
2019-05-11T12:10:07.766Z,15.06
2019-05-11T12:12:39.261Z,14.99
2019-05-11T12:15:10.757Z,14.88
2019-05-11T12:17:42.062Z,14.79
2019-05-11T12:20:13.576Z,14.66
2019-05-11T12:22:44.830Z,14.64
2019-05-11T12:25:18.326Z,14.47
2019-05-11T12:27:49.298Z,14.52
2019-05-11T12:30:20.732Z,14.57
2019-05-11T12:32:52.005Z,14.63
2019-05-11T12:35:23.343Z,14.72
2019-05-11T12:37:54.597Z,14.64
2019-05-11T12:40:28.162Z,14.71
2019-05-11T12:42:59.182Z,14.73
2019-05-11T12:45:30.558Z,14.55
2019-05-11T12:48:01.820Z,14.40
2019-05-11T12:50:33.143Z,14.37
2019-05-11T12:53:04.419Z,14.32
2019-05-11T12:55:37.767Z,14.19
2019-05-11T12:58:08.790Z,14.17
2019-05-11T13:00:40.075Z,14.21
2019-05-11T13:03:11.386Z,14.29
2019-05-11T13:05:42.741Z,14.33
2019-05-11T13:08:13.982Z,14.43
2019-05-11T13:10:47.726Z,14.44
2019-05-11T13:13:18.530Z,14.42
2019-05-11T13:15:49.876Z,14.41
2019-05-11T13:18:21.193Z,14.41
2019-05-11T13:20:52.562Z,14.68
2019-05-11T13:23:23.896Z,14.95
2019-05-11T13:25:55.249Z,15.38
2019-05-11T13:28:28.387Z,15.84
2019-05-11T13:30:59.523Z,16.04
2019-05-11T13:33:30.875Z,16.13
2019-05-11T13:36:02.168Z,16.19
2019-05-11T13:38:33.452Z,16.32
2019-05-11T13:41:04.771Z,16.29
2019-05-11T13:43:38.424Z,16.24
2019-05-11T13:46:09.052Z,16.06
2019-05-11T13:48:40.366Z,16.12
2019-05-11T13:51:11.695Z,16.11
2019-05-11T13:53:42.967Z,16.23
2019-05-11T13:56:14.274Z,16.49
2019-05-11T13:58:45.615Z,16.60
2019-05-11T14:01:18.419Z,16.69
2019-05-11T14:03:50.039Z,16.74
2019-05-11T14:06:21.380Z,17.06
2019-05-11T14:08:52.689Z,17.53
2019-05-11T14:11:24.073Z,18.17
2019-05-11T14:13:55.379Z,18.59
2019-05-11T14:16:27.589Z,18.85
2019-05-11T14:18:59.167Z,19.09
2019-05-11T14:21:30.477Z,19.37
2019-05-11T14:24:01.754Z,19.59
2019-05-11T14:26:33.054Z,19.75
2019-05-11T14:29:04.388Z,19.84
2019-05-11T14:31:35.674Z,19.89
2019-05-11T14:34:08.879Z,19.74
2019-05-11T14:36:40.052Z,19.69
2019-05-11T14:39:11.376Z,19.69
2019-05-11T14:41:42.754Z,19.70
2019-05-11T14:44:14.120Z,19.68
2019-05-11T14:46:47.582Z,19.55
2019-05-11T14:49:18.597Z,19.33
2019-05-11T14:51:49.914Z,19.07
2019-05-11T14:54:21.213Z,18.75
2019-05-11T14:56:52.529Z,18.27
2019-05-11T14:59:23.829Z,17.98
2019-05-11T15:01:55.158Z,17.68
2019-05-11T15:04:28.580Z,17.45
2019-05-11T15:06:59.478Z,17.28
2019-05-11T15:09:30.751Z,17.05
2019-05-11T15:12:02.028Z,16.89
2019-05-11T15:14:33.335Z,16.83
2019-05-11T15:17:04.620Z,16.66
2019-05-11T15:19:38.157Z,16.56
2019-05-11T15:22:08.881Z,16.48
2019-05-11T15:24:40.189Z,16.44
2019-05-11T15:27:11.502Z,16.40
2019-05-11T15:29:42.924Z,16.57
2019-05-11T15:32:14.323Z,17.00
2019-05-11T15:34:45.917Z,17.46
2019-05-11T15:37:17.797Z,17.83
2019-05-11T15:39:49.225Z,18.18
2019-05-11T15:42:20.496Z,18.42
2019-05-11T15:44:51.748Z,18.67
2019-05-11T15:47:23.896Z,18.87
2019-05-11T15:49:57.767Z,18.93
2019-05-11T15:52:28.345Z,19.06
2019-05-11T15:54:59.687Z,18.80
2019-05-11T15:57:30.974Z,18.48
2019-05-11T16:00:02.230Z,18.09
2019-05-11T16:02:33.616Z,17.82
2019-05-11T16:05:05.830Z,17.45
2019-05-11T16:07:38.380Z,17.10
2019-05-11T16:10:10.537Z,16.88
2019-05-11T16:12:41.826Z,16.64
2019-05-11T16:15:14.616Z,16.36
2019-05-11T16:17:48.424Z,16.18
2019-05-11T16:20:19.243Z,16.07
2019-05-11T16:22:50.606Z,15.98
2019-05-11T16:25:21.908Z,16.06
2019-05-11T16:27:53.165Z,16.07
2019-05-11T16:30:24.473Z,16.04
2019-05-11T16:32:58.148Z,16.04
2019-05-11T16:35:29.829Z,16.29
2019-05-11T16:38:01.152Z,16.47
2019-05-11T16:40:32.525Z,16.76
2019-05-11T16:43:04.101Z,16.90
2019-05-11T16:45:35.825Z,16.97
2019-05-11T16:48:08.019Z,16.82
2019-05-11T16:50:39.633Z,16.71
2019-05-11T16:53:10.905Z,16.58
2019-05-11T16:55:42.195Z,16.53
2019-05-11T16:58:13.481Z,16.49
2019-05-11T17:00:44.792Z,16.44
2019-05-11T17:03:16.082Z,16.46
2019-05-11T17:05:48.502Z,16.47
2019-05-11T17:08:19.914Z,16.43
2019-05-11T17:10:59.156Z,16.48
2019-05-11T17:13:30.790Z,16.51
2019-05-11T17:16:02.114Z,16.53
2019-05-11T17:18:33.448Z,16.48
2019-05-11T17:21:04.735Z,16.41
2019-05-11T17:23:38.224Z,16.33
2019-05-11T17:26:09.035Z,16.32
2019-05-11T17:28:40.337Z,16.29
2019-05-11T17:31:18.563Z,16.18
2019-05-11T17:33:48.873Z,16.09
2019-05-11T17:36:20.123Z,15.77
2019-05-11T17:38:51.888Z,15.60
2019-05-11T17:41:23.195Z,15.52
2019-05-11T17:43:54.479Z,15.47
2019-05-11T17:46:27.856Z,15.42
2019-05-11T17:48:58.684Z,15.43
2019-05-11T17:51:29.983Z,15.45
2019-05-11T17:54:01.243Z,15.38
2019-05-11T17:56:32.502Z,15.43
2019-05-11T17:59:03.791Z,15.32
2019-05-11T18:01:35.041Z,15.33
2019-05-11T18:04:07.915Z,15.26
2019-05-11T18:06:39.501Z,15.33
2019-05-11T18:09:10.763Z,15.19
2019-05-11T18:11:42.045Z,15.19
2019-05-11T18:14:13.295Z,15.12
2019-05-11T18:16:44.535Z,14.97
2019-05-11T18:19:15.865Z,14.90
2019-05-11T18:21:48.747Z,14.77
2019-05-11T18:24:20.070Z,14.69
2019-05-11T18:26:51.382Z,14.64
2019-05-11T18:29:58.034Z,14.54
2019-05-11T18:32:32.748Z,14.48
2019-05-11T18:35:04.105Z,14.47
2019-05-11T18:37:35.393Z,14.29
2019-05-11T18:40:07.606Z,14.15
2019-05-11T18:42:38.922Z,14.07
2019-05-11T18:45:10.607Z,13.91
2019-05-11T18:47:41.901Z,13.79
2019-05-11T18:50:13.559Z,13.70
2019-05-11T18:52:44.834Z,13.74
2019-05-11T18:55:16.128Z,13.57
2019-05-11T18:57:49.043Z,13.42
2019-05-11T19:00:21.544Z,13.26
2019-05-11T19:02:52.807Z,13.31
2019-05-11T19:05:24.080Z,13.05
2019-05-11T19:07:55.352Z,12.97
2019-05-11T19:10:27.747Z,12.90
2019-05-11T19:12:59.202Z,12.82
2019-05-11T19:15:31.044Z,12.72
2019-05-11T19:18:02.342Z,12.69
2019-05-11T19:20:45.354Z,12.47
2019-05-11T19:23:08.330Z,12.30
2019-05-11T19:25:39.694Z,12.23
2019-05-11T19:28:10.928Z,12.15
2019-05-11T19:30:42.243Z,12.14
2019-05-11T19:33:13.551Z,12.01
2019-05-11T19:35:44.840Z,11.96
2019-05-11T19:38:16.133Z,11.87
2019-05-11T19:40:48.444Z,11.76
2019-05-11T19:43:19.815Z,11.75
2019-05-11T19:45:51.143Z,11.67
2019-05-11T19:48:22.498Z,11.56
2019-05-11T19:51:06.574Z,11.53
2019-05-11T19:53:28.051Z,11.45
2019-05-11T19:55:59.555Z,11.37
2019-05-11T19:58:30.881Z,11.27
2019-05-11T20:01:02.125Z,11.21
2019-05-11T20:03:33.395Z,11.16
2019-05-11T20:06:04.676Z,11.13
2019-05-11T20:08:35.960Z,11.08
2019-05-11T20:11:08.249Z,11.08
2019-05-11T20:13:39.672Z,10.96
2019-05-11T20:16:10.944Z,10.84
2019-05-11T20:18:42.275Z,10.84
2019-05-11T20:21:19.292Z,10.72
2019-05-11T20:23:48.394Z,10.67
2019-05-11T20:26:19.542Z,10.63
2019-05-11T20:28:50.857Z,10.63
2019-05-11T20:31:22.182Z,10.57
2019-05-11T20:33:53.467Z,10.49
2019-05-11T20:36:24.737Z,10.45
2019-05-11T20:38:56.470Z,10.36
2019-05-11T20:41:28.063Z,10.41
2019-05-11T20:43:59.936Z,10.28
2019-05-11T20:46:31.287Z,10.21
2019-05-11T20:49:02.989Z,10.12
2019-05-11T20:51:37.220Z,10.10
2019-05-11T20:54:08.822Z,10.05
2019-05-11T20:56:40.560Z,10.03
2019-05-11T20:59:12.566Z,9.99
2019-05-11T21:01:44.168Z,9.94
2019-05-11T21:04:15.518Z,9.88
2019-05-11T21:06:47.536Z,9.79
2019-05-11T21:09:19.034Z,9.77
2019-05-11T21:11:50.811Z,9.70
2019-05-11T21:14:22.104Z,9.63
2019-05-11T21:16:53.492Z,9.57
2019-05-11T21:19:24.782Z,9.59
2019-05-11T21:21:58.756Z,9.52
2019-05-11T21:24:28.988Z,9.48
2019-05-11T21:27:00.270Z,9.44
2019-05-11T21:29:31.542Z,9.39
2019-05-11T21:32:02.770Z,9.36
2019-05-11T21:34:34.067Z,9.28
2019-05-11T21:37:07.711Z,9.22
2019-05-11T21:39:38.295Z,9.18
2019-05-11T21:42:09.548Z,9.13
2019-05-11T21:44:40.804Z,9.21
2019-05-11T21:47:12.123Z,9.12
2019-05-11T21:49:43.377Z,9.09
2019-05-11T21:52:14.680Z,9.00
2019-05-11T21:54:46.017Z,8.94
2019-05-11T21:57:18.587Z,8.89
2019-05-11T21:59:49.991Z,8.90
2019-05-11T22:02:21.354Z,8.86
2019-05-11T22:04:52.625Z,8.80
2019-05-11T22:07:23.886Z,8.73
2019-05-11T22:09:55.196Z,8.69
2019-05-11T22:12:27.956Z,8.67
2019-05-11T22:14:59.338Z,8.60
2019-05-11T22:17:30.827Z,8.56
2019-05-11T22:20:02.257Z,8.52
2019-05-11T22:22:33.514Z,8.49
2019-05-11T22:25:04.911Z,8.46
2019-05-11T22:27:38.408Z,8.42
2019-05-11T22:30:10.330Z,8.44
2019-05-11T22:32:41.603Z,8.37
2019-05-11T22:35:13.716Z,8.29
2019-05-11T22:37:45.054Z,8.24
2019-05-11T22:40:16.478Z,8.18
2019-05-11T22:42:47.729Z,8.12
2019-05-11T22:45:19.128Z,8.09
2019-05-11T22:47:50.472Z,8.05
2019-05-11T22:50:21.778Z,8.02
2019-05-11T22:52:53.078Z,7.99
2019-05-11T22:55:24.444Z,7.97
2019-05-11T22:57:57.957Z,7.95
2019-05-11T23:00:43.945Z,7.87
2019-05-11T23:03:15.328Z,7.83
2019-05-11T23:05:47.705Z,7.79
2019-05-11T23:08:19.023Z,7.75
2019-05-11T23:10:50.311Z,7.72
2019-05-11T23:13:21.590Z,7.71
2019-05-11T23:15:52.833Z,7.69
2019-05-11T23:18:24.089Z,7.62
2019-05-11T23:20:55.353Z,7.61
2019-05-11T23:23:28.311Z,7.60
2019-05-11T23:25:59.742Z,7.56
2019-05-11T23:28:31.030Z,7.51
2019-05-11T23:31:02.270Z,7.47
2019-05-11T23:33:33.548Z,7.44
2019-05-11T23:36:04.829Z,7.46
2019-05-11T23:38:38.543Z,7.41
2019-05-11T23:41:22.591Z,7.35
2019-05-11T23:43:42.091Z,7.30
2019-05-11T23:46:13.341Z,7.28
2019-05-11T23:48:44.620Z,7.26
2019-05-11T23:51:17.960Z,7.24
2019-05-11T23:53:48.862Z,7.22
2019-05-11T23:56:20.143Z,7.16
2019-05-11T23:58:51.407Z,7.16
